KFCH/FCH METAR and TAF weather

Enter ICAO airport designator
Station Type Date Time Source
KFCH METAR 2019/04/23 04:55 UTC NOAA

KFCH 230455Z AUTO 00000KT 10SM 20/10 A2999 RMK A01


Station Type Date Time Source
KFCH Decoded METAR 2019/04/23 04:55 UTC NOAA

Fresno-Chandler, CA, United States (KFCH) 36-44N 119-49W
Apr 23, 2019 - 12:55 AM EDT / 2019.04.23 0455 UTC
Wind: Calm:0
Visibility: 10 mile(s):0
Temperature: 68 F (20 C)
Dew Point: 50 F (10 C)
Relative Humidity: 52%
Pressure (altimeter): 29.99 in. Hg (1015 hPa)
ob: KFCH 230455Z AUTO 00000KT 10SM 20/10 A2999 RMK A01
cycle: 5

Station Type Date Time Source
KFCH TAF UTC NOAA

Error!

Example: see airport list